createdAt,value
2019-04-27T00:00:04.835Z,75.09
2019-04-27T00:01:10.471Z,74.92
2019-04-27T00:02:05.928Z,75.73
2019-04-27T00:03:06.056Z,76.75
2019-04-27T00:04:04.791Z,76.86
2019-04-27T00:05:04.774Z,76.45
2019-04-27T00:06:07.482Z,76.65
2019-04-27T00:07:04.782Z,76.14
2019-04-27T00:08:04.809Z,76.95
2019-04-27T00:09:07.491Z,77.06
2019-04-27T00:10:04.715Z,76.86
2019-04-27T00:11:08.521Z,76.95
2019-04-27T00:12:05.632Z,76.14
2019-04-27T00:13:05.798Z,75.33
2019-04-27T00:14:04.677Z,75.43
2019-04-27T00:15:04.662Z,75.43
2019-04-27T00:16:09.685Z,75.63
2019-04-27T00:17:05.671Z,75.43
2019-04-27T00:18:04.643Z,75.33
2019-04-27T00:19:04.625Z,75.43
2019-04-27T00:20:04.625Z,75.67
2019-04-27T00:21:04.598Z,75.67
2019-04-27T00:22:04.633Z,75.87
2019-04-27T00:23:04.593Z,75.84
2019-04-27T00:24:04.557Z,75.33
2019-04-27T00:25:04.557Z,75.63
2019-04-27T00:26:04.544Z,75.23
2019-04-27T00:27:04.537Z,75.23
2019-04-27T00:28:05.427Z,75.06
2019-04-27T00:29:04.538Z,75.26
2019-04-27T00:30:04.522Z,75.26
2019-04-27T00:31:04.534Z,75.77
2019-04-27T00:32:04.502Z,75.50
2019-04-27T00:33:05.340Z,75.91
2019-04-27T00:34:04.450Z,75.67
2019-04-27T00:35:04.446Z,75.81
2019-04-27T00:36:04.427Z,75.70
2019-04-27T00:37:04.414Z,76.11
2019-04-27T00:38:04.436Z,76.72
2019-04-27T00:39:05.248Z,76.21
2019-04-27T00:40:04.410Z,76.01
2019-04-27T00:41:04.400Z,76.01
2019-04-27T00:42:04.369Z,76.31
2019-04-27T00:43:04.386Z,76.92
2019-04-27T00:44:04.346Z,77.03
2019-04-27T00:45:05.491Z,76.62
2019-04-27T00:46:04.346Z,76.11
2019-04-27T00:47:04.348Z,75.67
2019-04-27T00:48:04.321Z,75.26
2019-04-27T00:49:04.290Z,74.85
2019-04-27T00:50:04.294Z,75.09
2019-04-27T00:51:04.437Z,75.40
2019-04-27T00:52:04.259Z,75.26
2019-04-27T00:53:04.253Z,75.60
2019-04-27T00:54:04.670Z,75.81
2019-04-27T00:55:04.216Z,75.70
2019-04-27T00:56:04.210Z,75.91
2019-04-27T00:57:04.202Z,75.57
2019-04-27T00:58:04.293Z,75.46
2019-04-27T00:59:04.187Z,75.57
2019-04-27T01:00:05.145Z,75.26
2019-04-27T01:01:04.197Z,74.79
2019-04-27T01:02:04.143Z,74.79
2019-04-27T01:03:04.173Z,74.99
2019-04-27T01:04:04.120Z,75.37
2019-04-27T01:05:05.844Z,75.37
2019-04-27T01:06:04.097Z,75.70
2019-04-27T01:07:04.137Z,75.46
2019-04-27T01:08:04.086Z,75.50
2019-04-27T01:09:04.103Z,75.57
2019-04-27T01:10:05.298Z,75.40
2019-04-27T01:11:04.050Z,75.50
2019-04-27T01:12:04.029Z,75.50
2019-04-27T01:13:04.050Z,75.60
2019-04-27T01:14:04.052Z,75.20
2019-04-27T01:15:04.026Z,76.21
2019-04-27T01:16:03.995Z,76.62
2019-04-27T01:17:03.992Z,76.21
2019-04-27T01:18:12.084Z,75.87
2019-04-27T01:19:04.974Z,75.91
2019-04-27T01:20:03.954Z,77.09
2019-04-27T01:21:03.963Z,75.50
2019-04-27T01:22:03.926Z,75.77
2019-04-27T01:23:03.908Z,75.26
2019-04-27T01:24:03.934Z,75.70
2019-04-27T01:25:03.897Z,75.40
2019-04-27T01:26:03.880Z,76.18
2019-04-27T01:27:03.868Z,77.09
2019-04-27T01:28:03.853Z,76.28
2019-04-27T01:29:03.888Z,76.28
2019-04-27T01:30:03.852Z,75.46
2019-04-27T01:31:03.824Z,75.06
2019-04-27T01:32:03.812Z,75.06
2019-04-27T01:33:03.803Z,74.85
2019-04-27T01:34:03.791Z,75.26
2019-04-27T01:35:03.825Z,75.06
2019-04-27T01:36:03.798Z,75.16
2019-04-27T01:37:03.783Z,75.23
2019-04-27T01:38:03.800Z,75.02
2019-04-27T01:39:03.963Z,74.62
2019-04-27T01:40:03.749Z,74.72
2019-04-27T01:41:03.716Z,75.12
2019-04-27T01:42:03.702Z,75.12
2019-04-27T01:43:03.728Z,75.12
2019-04-27T01:44:03.703Z,74.96
2019-04-27T01:45:03.722Z,74.82
2019-04-27T01:46:03.652Z,75.37
2019-04-27T01:47:03.647Z,75.43
2019-04-27T01:48:03.675Z,74.82
2019-04-27T01:49:03.627Z,74.82
2019-04-27T01:50:03.628Z,74.52
2019-04-27T01:51:03.607Z,75.12
2019-04-27T01:52:03.593Z,74.76
2019-04-27T01:53:03.609Z,74.85
2019-04-27T01:54:03.628Z,74.82
2019-04-27T01:55:03.595Z,74.72
2019-04-27T01:56:03.537Z,74.85
2019-04-27T01:57:04.248Z,74.82
2019-04-27T01:58:03.551Z,74.82
2019-04-27T01:59:03.526Z,75.02
2019-04-27T02:00:03.543Z,74.52
2019-04-27T02:01:03.522Z,74.52
2019-04-27T02:02:03.471Z,74.01
2019-04-27T02:03:03.472Z,74.31
2019-04-27T02:04:03.458Z,74.41
2019-04-27T02:05:03.447Z,74.82
2019-04-27T02:06:03.535Z,74.72
2019-04-27T02:07:03.420Z,74.82
2019-04-27T02:08:03.421Z,74.35
2019-04-27T02:09:03.398Z,74.76
2019-04-27T02:10:03.386Z,75.16
2019-04-27T02:11:03.398Z,75.37
2019-04-27T02:12:03.392Z,75.46
2019-04-27T02:13:03.350Z,75.26
2019-04-27T02:14:03.371Z,75.50
2019-04-27T02:15:03.333Z,75.26
2019-04-27T02:16:03.340Z,75.37
2019-04-27T02:17:03.333Z,75.67
2019-04-27T02:18:03.328Z,75.46
2019-04-27T02:19:03.307Z,75.46
2019-04-27T02:20:03.297Z,75.67
2019-04-27T02:21:03.297Z,75.26
2019-04-27T02:22:03.267Z,75.67
2019-04-27T02:23:03.234Z,75.26
2019-04-27T02:24:03.224Z,74.85
2019-04-27T02:25:03.216Z,74.85
2019-04-27T02:26:03.222Z,75.16
2019-04-27T02:27:03.246Z,74.76
2019-04-27T02:28:03.247Z,74.76
2019-04-27T02:29:03.184Z,75.16
2019-04-27T02:30:03.181Z,75.06
2019-04-27T02:31:03.153Z,74.96
2019-04-27T02:32:03.220Z,75.16
2019-04-27T02:33:03.139Z,75.16
2019-04-27T02:34:03.126Z,75.16
2019-04-27T02:35:03.115Z,74.99
2019-04-27T02:36:03.124Z,74.69
2019-04-27T02:37:03.115Z,74.99
2019-04-27T02:38:03.077Z,75.09
2019-04-27T02:39:03.118Z,75.40
2019-04-27T02:40:03.053Z,75.30
2019-04-27T02:41:03.054Z,75.50
2019-04-27T02:42:03.055Z,75.40
2019-04-27T02:43:03.040Z,75.09
2019-04-27T02:44:03.011Z,74.99
2019-04-27T02:45:02.996Z,75.30
2019-04-27T02:46:02.986Z,74.99
2019-04-27T02:47:03.010Z,74.28
2019-04-27T02:48:02.960Z,73.87
2019-04-27T02:49:06.524Z,73.87
2019-04-27T02:50:02.954Z,74.18
2019-04-27T02:51:02.930Z,73.67
2019-04-27T02:52:02.922Z,73.33
2019-04-27T02:53:03.337Z,73.57
2019-04-27T02:54:02.896Z,73.87
2019-04-27T02:55:02.893Z,74.28
2019-04-27T02:56:02.901Z,74.28
2019-04-27T02:57:02.899Z,73.67
2019-04-27T02:58:02.873Z,74.18
2019-04-27T02:59:02.860Z,73.57
2019-04-27T03:00:02.860Z,74.28
2019-04-27T03:01:02.869Z,73.87
2019-04-27T03:02:02.799Z,73.87
2019-04-27T03:03:02.834Z,73.47
2019-04-27T03:04:02.784Z,74.08
2019-04-27T03:05:02.767Z,73.67
2019-04-27T03:06:02.758Z,74.08
2019-04-27T03:07:02.763Z,73.54
2019-04-27T03:08:02.795Z,73.57
2019-04-27T03:09:02.743Z,73.47
2019-04-27T03:10:02.966Z,72.96
2019-04-27T03:11:02.698Z,73.36
2019-04-27T03:12:02.708Z,72.86
2019-04-27T03:13:02.709Z,73.36
2019-04-27T03:14:02.709Z,73.71
2019-04-27T03:15:02.703Z,73.60
2019-04-27T03:16:02.639Z,73.40
2019-04-27T03:17:02.629Z,73.30
2019-04-27T03:18:02.659Z,73.60
2019-04-27T03:19:14.977Z,73.60
2019-04-27T03:20:03.594Z,73.57
2019-04-27T03:21:02.586Z,73.30
2019-04-27T03:22:02.567Z,73.60
2019-04-27T03:23:02.563Z,73.71
2019-04-27T03:24:02.603Z,73.91
2019-04-27T03:25:02.589Z,73.60
2019-04-27T03:26:02.541Z,73.91
2019-04-27T03:27:02.513Z,72.58
2019-04-27T03:28:02.812Z,73.30
2019-04-27T03:29:02.511Z,72.38
2019-04-27T03:30:02.525Z,72.31
2019-04-27T03:31:03.120Z,72.82
2019-04-27T03:32:02.466Z,72.82
2019-04-27T03:33:03.577Z,72.82
2019-04-27T03:34:05.311Z,73.40
2019-04-27T03:35:03.559Z,73.23
2019-04-27T03:36:03.154Z,73.10
2019-04-27T03:37:02.394Z,72.99
2019-04-27T03:38:02.380Z,72.89
2019-04-27T03:39:02.476Z,72.28
2019-04-27T03:40:02.376Z,72.17
2019-04-27T03:41:02.380Z,72.38
2019-04-27T03:42:02.340Z,72.48
2019-04-27T03:43:02.320Z,72.28
2019-04-27T03:44:02.315Z,72.38
2019-04-27T03:45:02.324Z,72.08
2019-04-27T03:46:02.290Z,72.08
2019-04-27T03:47:02.300Z,71.87
2019-04-27T03:48:02.268Z,72.28
2019-04-27T03:49:02.255Z,72.28
2019-04-27T03:50:02.285Z,71.97
2019-04-27T03:51:02.262Z,71.97
2019-04-27T03:52:02.988Z,71.97
2019-04-27T03:53:02.217Z,71.87
2019-04-27T03:54:02.275Z,71.97
2019-04-27T03:55:02.227Z,72.08
2019-04-27T03:56:02.213Z,72.38
2019-04-27T03:57:02.579Z,72.38
2019-04-27T03:58:02.204Z,72.38
2019-04-27T03:59:02.148Z,72.58
2019-04-27T04:00:02.197Z,72.48
2019-04-27T04:01:02.131Z,72.28
2019-04-27T04:02:02.567Z,72.38
2019-04-27T04:03:02.140Z,72.78
2019-04-27T04:04:02.086Z,72.82
2019-04-27T04:05:02.118Z,73.13
2019-04-27T04:06:02.063Z,73.60
2019-04-27T04:07:02.057Z,73.23
2019-04-27T04:08:02.080Z,73.30
2019-04-27T04:09:02.099Z,73.33
2019-04-27T04:10:02.020Z,72.99
2019-04-27T04:11:02.023Z,73.30
2019-04-27T04:12:02.325Z,72.78
2019-04-27T04:13:02.028Z,72.78
2019-04-27T04:14:01.979Z,72.58
2019-04-27T04:15:02.025Z,72.78
2019-04-27T04:16:01.969Z,72.75
2019-04-27T04:17:02.976Z,72.45
2019-04-27T04:18:01.929Z,72.86
2019-04-27T04:19:01.930Z,72.96
2019-04-27T04:20:02.078Z,72.78
2019-04-27T04:21:01.917Z,73.97
2019-04-27T04:22:02.338Z,73.87
2019-04-27T04:23:03.264Z,73.47
2019-04-27T04:24:01.877Z,73.16
2019-04-27T04:25:01.928Z,72.75
2019-04-27T04:26:01.876Z,72.55
2019-04-27T04:27:01.827Z,72.96
2019-04-27T04:28:01.817Z,72.34
2019-04-27T04:29:01.854Z,72.14
2019-04-27T04:30:01.834Z,72.55
2019-04-27T04:31:01.831Z,72.65
2019-04-27T04:32:01.825Z,72.14
2019-04-27T04:33:01.788Z,73.54
2019-04-27T04:34:01.755Z,72.62
2019-04-27T04:35:01.810Z,72.52
2019-04-27T04:36:01.767Z,72.21
2019-04-27T04:37:01.817Z,72.21
2019-04-27T04:38:01.721Z,72.01
2019-04-27T04:39:01.735Z,71.26
2019-04-27T04:40:01.715Z,71.26
2019-04-27T04:41:01.677Z,71.26
2019-04-27T04:42:01.715Z,70.75
2019-04-27T04:43:03.260Z,70.96
2019-04-27T04:44:01.631Z,71.06
2019-04-27T04:45:01.705Z,70.96
2019-04-27T04:46:01.613Z,70.75
2019-04-27T04:47:01.660Z,70.65
2019-04-27T04:48:01.593Z,70.86
2019-04-27T04:49:01.624Z,70.65
2019-04-27T04:50:11.088Z,70.75
2019-04-27T04:51:02.587Z,70.48
2019-04-27T04:52:01.609Z,70.89
2019-04-27T04:53:01.559Z,70.89
2019-04-27T04:54:01.588Z,71.09
2019-04-27T04:55:02.587Z,71.19
2019-04-27T04:56:01.522Z,71.50
2019-04-27T04:57:01.510Z,71.30
2019-04-27T04:58:01.488Z,71.40
2019-04-27T04:59:01.461Z,71.91
2019-04-27T05:00:01.493Z,71.30
2019-04-27T05:01:02.011Z,71.50
2019-04-27T05:02:02.470Z,71.50
2019-04-27T05:03:01.423Z,71.70
2019-04-27T05:04:01.402Z,71.60
2019-04-27T05:05:01.407Z,71.70
2019-04-27T05:06:01.441Z,71.60
2019-04-27T05:07:01.402Z,71.60
2019-04-27T05:08:01.359Z,71.91
2019-04-27T05:09:01.350Z,71.80
2019-04-27T05:10:01.338Z,71.60
2019-04-27T05:11:01.320Z,71.50
2019-04-27T05:12:01.390Z,71.70
2019-04-27T05:13:01.300Z,72.01
2019-04-27T05:14:01.540Z,71.80
2019-04-27T05:15:01.276Z,72.01
2019-04-27T05:16:01.264Z,71.67
2019-04-27T05:17:01.288Z,71.50
2019-04-27T05:18:01.248Z,71.77
2019-04-27T05:19:01.233Z,71.36
2019-04-27T05:20:01.267Z,71.06
2019-04-27T05:21:01.206Z,71.09
2019-04-27T05:22:01.198Z,71.40
2019-04-27T05:23:01.340Z,71.80
2019-04-27T05:24:01.181Z,71.91
2019-04-27T05:25:01.179Z,72.01
2019-04-27T05:26:01.148Z,72.11
2019-04-27T05:27:01.197Z,71.50
2019-04-27T05:28:01.357Z,71.40
2019-04-27T05:29:01.259Z,71.70
2019-04-27T05:30:01.165Z,71.91
2019-04-27T05:31:01.106Z,72.01
2019-04-27T05:32:01.109Z,71.60
2019-04-27T05:33:01.239Z,71.60
2019-04-27T05:34:01.062Z,72.01
2019-04-27T05:35:01.108Z,71.80
2019-04-27T05:36:01.038Z,71.80
2019-04-27T05:37:01.194Z,72.11
2019-04-27T05:38:07.252Z,72.52
2019-04-27T05:39:02.008Z,72.82
2019-04-27T05:40:01.062Z,73.06
2019-04-27T05:41:01.108Z,72.86
2019-04-27T05:42:00.972Z,73.26
2019-04-27T05:43:01.010Z,73.54
2019-04-27T05:44:03.317Z,73.16
2019-04-27T05:45:01.977Z,72.62
2019-04-27T05:46:01.236Z,73.63
2019-04-27T05:47:00.916Z,73.02
2019-04-27T05:48:00.961Z,73.84
2019-04-27T05:49:06.025Z,72.96
2019-04-27T05:50:01.878Z,73.43
2019-04-27T05:51:02.029Z,73.13
2019-04-27T05:52:00.855Z,72.92
2019-04-27T05:53:00.875Z,72.01
2019-04-27T05:54:00.859Z,72.11
2019-04-27T05:55:00.830Z,72.52
2019-04-27T05:56:00.835Z,72.52
2019-04-27T05:57:00.802Z,72.55
2019-04-27T05:58:00.784Z,72.72
2019-04-27T05:59:00.791Z,72.72
2019-04-27T06:00:02.229Z,72.52
2019-04-27T06:01:00.755Z,72.52
2019-04-27T06:02:00.759Z,72.21
2019-04-27T06:03:00.734Z,72.17
2019-04-27T06:04:00.748Z,72.17
2019-04-27T06:05:00.703Z,72.08
2019-04-27T06:06:01.739Z,72.17
2019-04-27T06:07:01.049Z,72.11
2019-04-27T06:08:00.678Z,72.72
2019-04-27T06:09:00.680Z,72.72
2019-04-27T06:10:00.661Z,73.02
2019-04-27T06:11:00.675Z,72.21
2019-04-27T06:12:00.706Z,72.21
2019-04-27T06:13:00.624Z,72.41
2019-04-27T06:14:00.620Z,72.31
2019-04-27T06:15:00.604Z,72.89
2019-04-27T06:16:00.607Z,72.08
2019-04-27T06:17:00.565Z,71.77
2019-04-27T06:18:00.612Z,71.87
2019-04-27T06:19:00.586Z,71.47
2019-04-27T06:20:00.580Z,71.36
2019-04-27T06:21:00.526Z,71.47
2019-04-27T06:22:01.313Z,71.16
2019-04-27T06:23:00.499Z,71.06
2019-04-27T06:24:00.511Z,70.72
2019-04-27T06:25:00.599Z,70.01
2019-04-27T06:26:01.804Z,69.81
2019-04-27T06:27:00.458Z,70.11
2019-04-27T06:28:00.454Z,69.40
2019-04-27T06:29:00.520Z,69.81
2019-04-27T06:30:00.460Z,69.40
2019-04-27T06:31:00.406Z,69.50
2019-04-27T06:32:00.463Z,69.50
2019-04-27T06:33:00.415Z,69.60
2019-04-27T06:34:00.417Z,69.50
2019-04-27T06:35:00.398Z,70.01
2019-04-27T06:36:01.796Z,69.60
2019-04-27T06:37:00.344Z,69.81
2019-04-27T06:38:00.340Z,69.60
2019-04-27T06:39:00.395Z,69.57
2019-04-27T06:40:00.346Z,69.78
2019-04-27T06:41:01.408Z,69.57
2019-04-27T06:42:01.342Z,69.26
2019-04-27T06:43:00.286Z,69.67
2019-04-27T06:44:00.257Z,69.47
2019-04-27T06:45:00.264Z,70.28
2019-04-27T06:46:00.300Z,70.08
2019-04-27T06:47:00.234Z,70.18
2019-04-27T06:48:00.217Z,70.08
2019-04-27T06:49:00.245Z,69.95
2019-04-27T06:50:00.218Z,70.18
2019-04-27T06:51:03.687Z,70.15
2019-04-27T06:52:01.168Z,69.64
2019-04-27T06:53:00.159Z,69.74
2019-04-27T06:54:00.159Z,69.54
2019-04-27T06:55:00.727Z,69.34
2019-04-27T06:56:00.267Z,69.54
2019-04-27T06:57:00.146Z,69.54
2019-04-27T06:58:00.104Z,69.54
2019-04-27T06:59:00.086Z,69.54
2019-04-27T07:00:00.098Z,69.54
2019-04-27T07:01:00.070Z,69.34
2019-04-27T07:02:00.930Z,69.95
2019-04-27T07:03:00.129Z,70.35
2019-04-27T07:04:00.036Z,69.84
2019-04-27T07:05:00.047Z,70.15
2019-04-27T07:06:00.005Z,69.84
2019-04-27T07:07:01.744Z,69.43
2019-04-27T07:07:59.987Z,69.95
2019-04-27T07:08:59.982Z,70.55
2019-04-27T07:09:59.980Z,69.95
2019-04-27T07:10:59.988Z,70.15
2019-04-27T07:11:59.969Z,70.04
2019-04-27T07:12:59.927Z,70.45
2019-04-27T07:13:59.920Z,70.35
2019-04-27T07:14:59.924Z,70.01
2019-04-27T07:15:59.958Z,69.64
2019-04-27T07:16:59.968Z,69.00
2019-04-27T07:17:59.873Z,69.71
2019-04-27T07:18:59.888Z,69.81
2019-04-27T07:19:59.889Z,69.60
2019-04-27T07:20:59.850Z,69.51
2019-04-27T07:21:59.845Z,69.34
2019-04-27T07:22:59.808Z,69.30
2019-04-27T07:23:59.870Z,69.30
2019-04-27T07:24:59.889Z,69.20
2019-04-27T07:25:59.967Z,68.79
2019-04-27T07:26:59.860Z,68.08
2019-04-27T07:27:59.761Z,68.19
2019-04-27T07:28:59.967Z,68.39
2019-04-27T07:30:01.694Z,68.26
2019-04-27T07:30:59.741Z,68.15
2019-04-27T07:31:59.855Z,68.66
2019-04-27T07:33:00.390Z,69.27
2019-04-27T07:33:59.712Z,69.07
2019-04-27T07:34:59.754Z,68.46
2019-04-27T07:35:59.882Z,68.15
2019-04-27T07:36:59.896Z,68.15
2019-04-27T07:37:59.637Z,68.12
2019-04-27T07:39:00.012Z,67.00
2019-04-27T07:39:59.619Z,67.11
2019-04-27T07:40:59.679Z,67.03
2019-04-27T07:41:59.618Z,67.95
2019-04-27T07:42:59.591Z,68.26
2019-04-27T07:43:59.643Z,68.26
2019-04-27T07:44:59.599Z,67.21
2019-04-27T07:45:59.594Z,68.12
2019-04-27T07:46:59.640Z,68.23
2019-04-27T07:47:59.535Z,67.11
2019-04-27T07:48:59.599Z,67.44
2019-04-27T07:50:01.381Z,67.31
2019-04-27T07:50:59.539Z,67.51
2019-04-27T07:51:59.482Z,67.21
2019-04-27T07:52:59.468Z,68.12
2019-04-27T07:53:59.470Z,67.00
2019-04-27T07:54:59.449Z,66.40
2019-04-27T07:55:59.462Z,66.80
2019-04-27T07:56:59.496Z,66.70
2019-04-27T07:57:59.875Z,66.60
2019-04-27T07:58:59.627Z,67.21
2019-04-27T07:59:59.778Z,67.28
2019-04-27T08:00:59.564Z,66.37
2019-04-27T08:01:59.612Z,66.77
2019-04-27T08:02:59.402Z,66.57
2019-04-27T08:03:59.351Z,66.47
2019-04-27T08:04:59.682Z,66.16
2019-04-27T08:05:59.457Z,66.27
2019-04-27T08:06:59.661Z,66.67
2019-04-27T08:08:00.212Z,66.24
2019-04-27T08:08:59.455Z,65.86
2019-04-27T08:10:01.616Z,65.76
2019-04-27T08:10:59.572Z,65.86
2019-04-27T08:11:59.294Z,66.16
2019-04-27T08:12:59.843Z,66.24
2019-04-27T08:13:59.235Z,65.83
2019-04-27T08:15:00.049Z,64.61
2019-04-27T08:15:59.240Z,64.92
2019-04-27T08:16:59.222Z,65.12
2019-04-27T08:17:59.366Z,65.15
2019-04-27T08:19:00.020Z,65.15
2019-04-27T08:19:59.622Z,66.13
2019-04-27T08:20:59.179Z,65.93
2019-04-27T08:21:59.651Z,65.12
2019-04-27T08:22:59.797Z,64.82
2019-04-27T08:23:59.155Z,65.93
2019-04-27T08:24:59.555Z,65.02
2019-04-27T08:25:59.111Z,64.82
2019-04-27T08:26:59.481Z,64.82
2019-04-27T08:28:00.270Z,65.12
2019-04-27T08:28:59.081Z,65.62
2019-04-27T08:29:59.078Z,66.13
2019-04-27T08:31:00.402Z,66.27
2019-04-27T08:31:59.045Z,66.16
2019-04-27T08:32:59.407Z,66.16
2019-04-27T08:34:00.120Z,65.93
2019-04-27T08:34:59.468Z,65.66
2019-04-27T08:35:59.179Z,65.53
2019-04-27T08:37:00.793Z,66.06
2019-04-27T08:37:59.480Z,66.13
2019-04-27T08:38:58.975Z,66.33
2019-04-27T08:39:59.269Z,66.74
2019-04-27T08:40:59.318Z,66.64
2019-04-27T08:41:59.492Z,66.74
2019-04-27T08:42:59.298Z,66.33
2019-04-27T08:43:58.931Z,66.84
2019-04-27T08:44:59.378Z,66.64
2019-04-27T08:46:00.424Z,66.54
2019-04-27T08:46:59.611Z,66.13
2019-04-27T08:47:59.462Z,66.03
2019-04-27T08:48:58.923Z,65.93
2019-04-27T08:49:59.206Z,66.13
2019-04-27T08:50:59.318Z,66.03
2019-04-27T08:52:01.770Z,64.69
2019-04-27T08:53:00.675Z,65.29
2019-04-27T08:53:59.157Z,65.19
2019-04-27T08:54:59.438Z,65.29
2019-04-27T08:55:59.246Z,65.39
2019-04-27T08:56:59.632Z,65.16
2019-04-27T08:57:58.851Z,65.77
2019-04-27T08:58:59.515Z,64.35
2019-04-27T08:59:59.657Z,64.65
2019-04-27T09:00:59.107Z,64.32
2019-04-27T09:01:58.874Z,63.51
2019-04-27T09:02:59.520Z,63.10
2019-04-27T09:03:59.276Z,63.21
2019-04-27T09:04:59.666Z,62.67
2019-04-27T09:05:59.117Z,63.08
2019-04-27T09:06:59.757Z,63.08
2019-04-27T09:07:59.722Z,63.18
2019-04-27T09:08:59.322Z,63.76
2019-04-27T09:09:59.629Z,63.76
2019-04-27T09:10:59.049Z,65.17
2019-04-27T09:11:59.461Z,62.24
2019-04-27T09:12:58.926Z,63.93
2019-04-27T09:13:59.006Z,62.62
2019-04-27T09:14:59.187Z,61.88
2019-04-27T09:16:00.070Z,61.77
2019-04-27T09:17:02.271Z,60.87
2019-04-27T09:17:58.921Z,58.92
2019-04-27T09:18:59.746Z,58.32
2019-04-27T09:19:59.148Z,57.91
2019-04-27T09:20:58.985Z,57.41
2019-04-27T09:22:10.358Z,57.71
2019-04-27T09:22:59.450Z,58.12
2019-04-27T09:23:59.312Z,57.41
2019-04-27T09:24:59.475Z,57.21
2019-04-27T09:25:59.497Z,57.58
2019-04-27T09:26:59.620Z,57.68
2019-04-27T09:27:59.734Z,57.08
2019-04-27T09:28:59.578Z,56.88
2019-04-27T09:29:59.059Z,57.05
2019-04-27T09:30:58.914Z,55.34
2019-04-27T09:32:01.521Z,55.44
2019-04-27T09:32:58.341Z,55.24
2019-04-27T09:33:58.325Z,54.33
2019-04-27T09:34:58.315Z,54.33
2019-04-27T09:35:58.340Z,55.24
2019-04-27T09:36:58.313Z,55.44
2019-04-27T09:37:58.295Z,55.34
2019-04-27T09:38:58.297Z,55.64
2019-04-27T09:39:58.254Z,55.34
2019-04-27T09:40:58.311Z,55.84
2019-04-27T09:41:58.276Z,54.73
2019-04-27T09:42:58.217Z,54.43
2019-04-27T09:43:58.323Z,53.55
2019-04-27T09:44:58.240Z,55.06
2019-04-27T09:45:58.216Z,55.36
2019-04-27T09:46:58.187Z,55.57
2019-04-27T09:47:58.258Z,54.16
2019-04-27T09:48:58.163Z,53.25
2019-04-27T09:49:58.166Z,53.45
2019-04-27T09:50:58.171Z,53.34
2019-04-27T09:51:58.147Z,52.87
2019-04-27T09:52:58.134Z,52.36
2019-04-27T09:53:58.150Z,52.74
2019-04-27T09:54:58.081Z,51.35
2019-04-27T09:55:58.082Z,51.56
2019-04-27T09:56:58.082Z,51.56
2019-04-27T09:57:58.062Z,52.16
2019-04-27T09:58:58.113Z,52.16
2019-04-27T09:59:58.029Z,51.66
2019-04-27T10:00:58.014Z,51.96
2019-04-27T10:01:58.039Z,52.44
2019-04-27T10:02:58.007Z,52.04
2019-04-27T10:03:57.995Z,52.06
2019-04-27T10:04:58.006Z,52.34
2019-04-27T10:05:57.993Z,51.93
2019-04-27T10:06:57.999Z,52.24
2019-04-27T10:07:57.933Z,51.51
2019-04-27T10:08:57.929Z,51.71
2019-04-27T10:09:57.953Z,49.99
2019-04-27T10:10:57.968Z,50.90
2019-04-27T10:11:57.921Z,50.82
2019-04-27T10:12:57.892Z,50.70
2019-04-27T10:13:57.886Z,51.10
2019-04-27T10:14:57.858Z,50.70
2019-04-27T10:15:57.843Z,50.80
2019-04-27T10:16:57.833Z,51.91
2019-04-27T10:17:57.890Z,51.51
2019-04-27T10:18:57.808Z,51.73
2019-04-27T10:19:57.842Z,51.91
2019-04-27T10:21:01.899Z,51.43
2019-04-27T10:21:57.788Z,51.93
2019-04-27T10:22:57.896Z,50.60
2019-04-27T10:23:57.763Z,50.50
2019-04-27T10:24:57.746Z,50.10
2019-04-27T10:25:57.858Z,49.99
2019-04-27T10:26:57.723Z,49.90
2019-04-27T10:27:57.741Z,49.47
2019-04-27T10:28:57.702Z,49.27
2019-04-27T10:29:58.519Z,49.04
2019-04-27T10:30:57.763Z,49.04
2019-04-27T10:31:57.673Z,50.15
2019-04-27T10:32:57.724Z,49.95
2019-04-27T10:33:57.642Z,48.74
2019-04-27T10:34:57.632Z,48.94
2019-04-27T10:35:57.632Z,48.41
2019-04-27T10:36:57.622Z,48.94
2019-04-27T10:37:57.692Z,49.35
2019-04-27T10:38:57.622Z,48.84
2019-04-27T10:39:57.584Z,49.04
2019-04-27T10:40:57.604Z,49.55
2019-04-27T10:41:57.562Z,49.27
2019-04-27T10:42:57.580Z,49.24
2019-04-27T10:43:57.618Z,50.15
2019-04-27T10:44:57.552Z,49.04
2019-04-27T10:45:57.525Z,48.72
2019-04-27T10:46:57.554Z,48.72
2019-04-27T10:47:57.525Z,48.90
2019-04-27T10:48:57.644Z,48.99
2019-04-27T10:49:57.463Z,48.59
2019-04-27T10:50:57.735Z,48.47
2019-04-27T10:51:57.996Z,48.55
2019-04-27T10:52:59.350Z,48.44
2019-04-27T10:53:57.422Z,47.24
2019-04-27T10:54:57.533Z,45.91
2019-04-27T10:55:57.392Z,45.51
2019-04-27T10:56:57.394Z,45.91
2019-04-27T10:57:57.408Z,44.60
2019-04-27T10:58:57.362Z,45.23
2019-04-27T10:59:57.364Z,44.93
2019-04-27T11:00:58.463Z,45.63
2019-04-27T11:01:57.351Z,46.31
2019-04-27T11:02:58.345Z,44.81
2019-04-27T11:03:57.558Z,44.28
2019-04-27T11:04:57.304Z,44.79
2019-04-27T11:05:57.301Z,44.87
2019-04-27T11:06:57.377Z,44.34
2019-04-27T11:07:57.325Z,43.74
2019-04-27T11:08:57.353Z,43.22
2019-04-27T11:09:57.314Z,42.61
2019-04-27T11:10:57.689Z,42.80
2019-04-27T11:11:57.530Z,42.19
2019-04-27T11:12:57.219Z,41.67
2019-04-27T11:14:00.748Z,41.39
2019-04-27T11:14:57.201Z,41.97
2019-04-27T11:15:57.168Z,42.18
2019-04-27T11:16:57.161Z,41.88
2019-04-27T11:17:57.204Z,42.46
2019-04-27T11:18:58.682Z,41.96
2019-04-27T11:19:57.146Z,40.95
2019-04-27T11:20:57.122Z,42.55
2019-04-27T11:21:57.105Z,41.66
2019-04-27T11:23:07.252Z,41.96
2019-04-27T11:23:58.206Z,42.76
2019-04-27T11:24:57.059Z,42.35
2019-04-27T11:25:57.065Z,41.13
2019-04-27T11:26:57.045Z,41.43
2019-04-27T11:27:57.870Z,40.23
2019-04-27T11:28:57.019Z,40.63
2019-04-27T11:29:57.005Z,40.53
2019-04-27T11:30:57.029Z,40.63
2019-04-27T11:31:56.990Z,39.83
2019-04-27T11:32:59.192Z,40.43
2019-04-27T11:33:57.125Z,39.73
2019-04-27T11:34:56.949Z,39.91
2019-04-27T11:35:56.946Z,40.22
2019-04-27T11:36:57.171Z,41.02
2019-04-27T11:37:56.950Z,40.61
2019-04-27T11:38:56.934Z,39.69
2019-04-27T11:39:56.899Z,38.71
2019-04-27T11:40:56.887Z,38.43
2019-04-27T11:41:56.879Z,39.33
2019-04-27T11:42:57.307Z,39.13
2019-04-27T11:43:56.997Z,39.03
2019-04-27T11:44:58.305Z,37.93
2019-04-27T11:45:56.970Z,38.83
2019-04-27T11:46:56.987Z,39.13
2019-04-27T11:47:57.091Z,39.45
2019-04-27T11:48:58.344Z,40.15
2019-04-27T11:49:57.980Z,39.45
2019-04-27T11:50:56.818Z,40.95
2019-04-27T11:51:56.824Z,40.83
2019-04-27T11:52:56.806Z,40.23
2019-04-27T11:53:56.756Z,40.43
2019-04-27T11:54:56.732Z,40.31
2019-04-27T11:55:56.731Z,40.00
2019-04-27T11:56:56.719Z,38.70
2019-04-27T11:57:56.714Z,37.79
2019-04-27T11:58:56.686Z,38.09
2019-04-27T11:59:58.071Z,37.88
2019-04-27T12:00:56.698Z,38.38
2019-04-27T12:01:56.677Z,37.48
2019-04-27T12:02:56.855Z,37.36
2019-04-27T12:03:56.638Z,37.46
2019-04-27T12:04:56.618Z,36.46
2019-04-27T12:06:00.071Z,36.44
2019-04-27T12:06:56.650Z,35.35
2019-04-27T12:07:56.606Z,35.35
2019-04-27T12:08:56.582Z,35.24
2019-04-27T12:09:56.563Z,35.24
2019-04-27T12:10:56.555Z,35.74
2019-04-27T12:12:06.735Z,35.35
2019-04-27T12:12:57.572Z,34.84
2019-04-27T12:13:56.513Z,35.24
2019-04-27T12:14:56.543Z,35.35
2019-04-27T12:15:56.510Z,35.85
2019-04-27T12:16:56.478Z,35.46
2019-04-27T12:17:56.502Z,35.38
2019-04-27T12:18:56.608Z,36.29
2019-04-27T12:19:56.443Z,36.47
2019-04-27T12:20:56.443Z,36.88
2019-04-27T12:21:56.623Z,36.47
2019-04-27T12:22:56.433Z,35.08
2019-04-27T12:23:56.415Z,34.58
2019-04-27T12:24:56.410Z,33.89
2019-04-27T12:25:56.446Z,34.89
2019-04-27T12:26:57.474Z,34.99
2019-04-27T12:27:56.403Z,35.10
2019-04-27T12:28:56.344Z,34.99
2019-04-27T12:29:56.357Z,34.99
2019-04-27T12:30:56.323Z,34.99
2019-04-27T12:31:56.357Z,34.89
2019-04-27T12:32:56.381Z,35.11
2019-04-27T12:33:56.300Z,35.91
2019-04-27T12:34:56.589Z,36.31
2019-04-27T12:35:56.895Z,36.29
2019-04-27T12:36:56.264Z,35.69
2019-04-27T12:37:56.258Z,35.69
2019-04-27T12:38:56.681Z,35.49
2019-04-27T12:39:57.641Z,35.38
2019-04-27T12:40:56.590Z,36.08
2019-04-27T12:41:56.210Z,35.68
2019-04-27T12:42:56.196Z,36.18
2019-04-27T12:43:56.250Z,35.38
2019-04-27T12:44:56.174Z,36.10
2019-04-27T12:45:56.171Z,36.10
2019-04-27T12:46:57.741Z,37.10
2019-04-27T12:47:57.152Z,36.61
2019-04-27T12:48:57.235Z,36.81
2019-04-27T12:49:57.754Z,37.61
2019-04-27T12:50:56.405Z,38.23
2019-04-27T12:51:56.134Z,37.93